createdAt,value
2022-12-29T00:01:43.889Z,6.30
2022-12-29T00:04:17.180Z,6.10
2022-12-29T00:06:49.739Z,5.70
2022-12-29T00:09:21.382Z,5.90
2022-12-29T00:11:53.123Z,6.30
2022-12-29T00:14:42.141Z,4.80
2022-12-29T00:17:13.953Z,5.70
2022-12-29T00:19:59.420Z,5.10
2022-12-29T00:22:48.495Z,5.10
2022-12-29T00:25:37.285Z,5.60
2022-12-29T00:28:27.345Z,5.10
2022-12-29T00:31:20.564Z,4.80
2022-12-29T00:34:09.357Z,5.20
2022-12-29T00:36:44.092Z,5.20
2022-12-29T00:42:35.019Z,4.70
2022-12-29T00:45:07.636Z,5.00
2022-12-29T00:47:39.253Z,4.90
2022-12-29T00:50:11.844Z,4.90
2022-12-29T00:52:43.359Z,4.50
2022-12-29T00:55:14.854Z,5.20
2022-12-29T00:57:46.292Z,5.40
2022-12-29T01:00:19.391Z,5.20
2022-12-29T01:02:51.156Z,5.60
2022-12-29T01:05:22.945Z,5.40
2022-12-29T01:07:54.494Z,5.80
2022-12-29T01:10:26.318Z,5.90
2022-12-29T01:12:57.841Z,6.30
2022-12-29T01:15:29.559Z,6.20
2022-12-29T01:18:01.184Z,5.00
2022-12-29T01:20:32.623Z,4.60
2022-12-29T01:23:05.191Z,5.20
2022-12-29T01:25:36.771Z,4.70
2022-12-29T01:28:09.655Z,5.30
2022-12-29T01:30:41.224Z,4.70
2022-12-29T01:33:12.851Z,4.60
2022-12-29T01:35:44.449Z,4.50
2022-12-29T01:38:15.989Z,4.30
2022-12-29T01:40:50.591Z,3.60
2022-12-29T01:43:22.445Z,4.40
2022-12-29T01:45:56.952Z,4.80
2022-12-29T01:48:28.470Z,3.90
2022-12-29T01:51:00.112Z,4.20
2022-12-29T01:53:36.048Z,4.20
2022-12-29T01:56:12.427Z,4.00
2022-12-29T01:58:48.760Z,3.60
2022-12-29T02:01:23.607Z,3.80
2022-12-29T02:03:55.849Z,3.60
2022-12-29T02:06:31.314Z,3.40
2022-12-29T02:09:03.305Z,3.30
2022-12-29T02:11:37.477Z,3.20
2022-12-29T02:14:13.482Z,3.30
2022-12-29T02:17:01.471Z,3.90
2022-12-29T02:20:01.432Z,3.10
2022-12-29T02:22:37.436Z,3.30
2022-12-29T02:25:53.560Z,3.10
2022-12-29T02:28:59.600Z,3.10
2022-12-29T02:31:39.964Z,3.00
2022-12-29T02:34:21.313Z,3.00
2022-12-29T02:37:04.064Z,3.50
2022-12-29T02:39:43.487Z,3.60
2022-12-29T02:42:23.752Z,3.50
2022-12-29T02:45:05.526Z,3.10
2022-12-29T02:47:42.819Z,3.00
2022-12-29T02:50:21.752Z,3.40
2022-12-29T02:52:57.451Z,3.20
2022-12-29T02:55:29.521Z,3.20
2022-12-29T02:58:22.695Z,3.30
2022-12-29T03:01:06.700Z,3.00
2022-12-29T03:03:51.672Z,3.10
2022-12-29T03:06:38.103Z,3.40
2022-12-29T03:09:23.306Z,2.80
2022-12-29T03:15:18.456Z,3.40
2022-12-29T03:17:58.892Z,3.10
2022-12-29T03:20:41.064Z,3.70
2022-12-29T03:23:14.281Z,2.90
2022-12-29T03:25:50.247Z,3.20
2022-12-29T03:28:25.446Z,2.80
2022-12-29T03:30:58.025Z,3.60
2022-12-29T03:33:32.301Z,2.80
2022-12-29T03:36:07.725Z,2.80
2022-12-29T03:41:19.471Z,3.20
2022-12-29T03:43:52.123Z,3.50
2022-12-29T03:46:23.885Z,3.40
2022-12-29T03:48:55.715Z,2.80
2022-12-29T03:51:27.269Z,3.50
2022-12-29T03:53:58.928Z,3.40
2022-12-29T03:56:30.389Z,3.00
2022-12-29T03:59:01.983Z,3.10
2022-12-29T04:01:33.997Z,3.10
2022-12-29T04:04:06.088Z,2.80
2022-12-29T04:06:37.640Z,3.30
2022-12-29T04:09:09.596Z,3.50
2022-12-29T04:11:41.002Z,3.10
2022-12-29T04:14:12.818Z,3.70
2022-12-29T04:16:44.981Z,3.60
2022-12-29T04:19:17.146Z,3.30
2022-12-29T04:21:50.214Z,3.30
2022-12-29T04:24:21.969Z,3.50
2022-12-29T04:26:53.774Z,3.40
2022-12-29T04:29:25.518Z,3.30
2022-12-29T04:31:57.352Z,4.50
2022-12-29T04:34:32.936Z,4.00
2022-12-29T04:37:10.095Z,3.60
2022-12-29T04:39:41.787Z,2.90
2022-12-29T04:42:13.451Z,3.80
2022-12-29T04:44:45.475Z,3.70
2022-12-29T04:47:17.088Z,3.90
2022-12-29T04:49:49.030Z,3.50
2022-12-29T04:52:20.636Z,3.90
2022-12-29T04:54:52.446Z,3.60
2022-12-29T04:57:23.954Z,4.00
2022-12-29T04:59:55.472Z,4.20
2022-12-29T05:02:27.615Z,3.50
2022-12-29T05:04:59.684Z,4.00
2022-12-29T05:07:31.393Z,3.20
2022-12-29T05:10:03.172Z,3.40
2022-12-29T05:12:36.577Z,3.70
2022-12-29T05:15:12.032Z,3.70
2022-12-29T05:17:43.661Z,3.80
2022-12-29T05:20:15.334Z,4.00
2022-12-29T05:22:46.942Z,3.90
2022-12-29T05:25:18.813Z,3.90
2022-12-29T05:27:50.932Z,3.80
2022-12-29T05:30:22.821Z,4.20
2022-12-29T05:32:54.557Z,4.50
2022-12-29T05:35:26.777Z,4.30
2022-12-29T05:37:58.354Z,4.10
2022-12-29T05:40:30.073Z,3.80
2022-12-29T05:43:01.526Z,4.60
2022-12-29T05:45:33.661Z,3.80
2022-12-29T05:48:05.481Z,3.60
2022-12-29T05:50:37.249Z,4.10
2022-12-29T05:53:08.993Z,3.50
2022-12-29T05:55:46.611Z,3.50
2022-12-29T05:58:20.383Z,4.30
2022-12-29T06:00:52.045Z,3.50
2022-12-29T06:03:23.687Z,4.50
2022-12-29T06:05:55.710Z,5.20
2022-12-29T06:08:27.361Z,5.60
2022-12-29T06:10:59.195Z,4.90
2022-12-29T06:13:31.092Z,5.30
2022-12-29T06:16:03.297Z,4.90
2022-12-29T06:18:35.088Z,4.30
2022-12-29T06:21:08.657Z,4.80
2022-12-29T06:23:40.555Z,4.40
2022-12-29T06:26:12.170Z,3.60
2022-12-29T06:28:43.665Z,4.30
2022-12-29T06:31:15.868Z,4.40
2022-12-29T06:33:49.994Z,5.00
2022-12-29T06:36:22.212Z,4.90
2022-12-29T06:38:54.470Z,5.50
2022-12-29T06:41:31.970Z,4.60
2022-12-29T06:44:03.970Z,4.50
2022-12-29T06:46:35.717Z,3.60
2022-12-29T06:49:08.248Z,4.20
2022-12-29T06:51:39.916Z,4.10
2022-12-29T06:54:11.654Z,4.70
2022-12-29T06:56:43.353Z,4.20
2022-12-29T06:59:14.995Z,4.50
2022-12-29T07:01:46.884Z,4.40
2022-12-29T07:04:18.959Z,4.40
2022-12-29T07:06:50.959Z,4.20
2022-12-29T07:09:22.681Z,4.40
2022-12-29T07:11:54.661Z,4.30
2022-12-29T07:14:26.550Z,4.50
2022-12-29T07:16:58.320Z,4.50
2022-12-29T07:19:30.481Z,3.80
2022-12-29T07:22:02.508Z,3.50
2022-12-29T07:24:34.095Z,3.90
2022-12-29T07:27:06.329Z,4.60
2022-12-29T07:29:38.936Z,3.80
2022-12-29T07:32:10.769Z,4.40
2022-12-29T07:34:42.562Z,4.30
2022-12-29T07:37:17.432Z,3.70
2022-12-29T07:39:49.091Z,4.00
2022-12-29T07:42:20.833Z,3.90
2022-12-29T07:44:52.757Z,4.40
2022-12-29T07:47:24.522Z,4.20
2022-12-29T07:49:56.433Z,4.00
2022-12-29T07:52:28.008Z,4.60
2022-12-29T07:54:59.997Z,4.60
2022-12-29T07:57:32.413Z,4.70
2022-12-29T08:00:06.123Z,4.30
2022-12-29T08:02:38.155Z,4.30
2022-12-29T08:05:10.841Z,4.30
2022-12-29T08:07:42.375Z,4.30
2022-12-29T08:10:14.828Z,4.90
2022-12-29T08:12:47.177Z,4.80
2022-12-29T08:15:18.947Z,4.90
2022-12-29T08:17:50.622Z,4.50
2022-12-29T08:20:22.303Z,4.40
2022-12-29T08:22:55.250Z,4.50
2022-12-29T08:25:26.792Z,4.50
2022-12-29T08:27:58.605Z,4.90
2022-12-29T08:30:30.751Z,4.70
2022-12-29T08:33:03.022Z,4.10
2022-12-29T08:35:35.100Z,4.60
2022-12-29T08:38:06.626Z,4.50
2022-12-29T08:40:38.244Z,4.50
2022-12-29T08:43:10.801Z,6.00
2022-12-29T08:45:42.571Z,4.70
2022-12-29T08:48:14.307Z,5.20
2022-12-29T08:50:47.460Z,4.80
2022-12-29T08:53:19.088Z,4.90
2022-12-29T08:56:03.673Z,5.30
2022-12-29T08:58:36.168Z,5.80
2022-12-29T09:01:08.476Z,5.90
2022-12-29T09:04:14.148Z,5.40
2022-12-29T09:06:38.115Z,6.20
2022-12-29T09:09:11.733Z,5.60
2022-12-29T09:11:43.368Z,5.10
2022-12-29T09:14:15.407Z,5.60
2022-12-29T09:17:03.923Z,4.90
2022-12-29T09:19:35.418Z,5.40
2022-12-29T09:22:07.085Z,4.60
2022-12-29T09:24:38.679Z,5.20
2022-12-29T09:27:10.348Z,5.50
2022-12-29T09:29:51.141Z,5.10
2022-12-29T09:32:23.684Z,5.20
2022-12-29T09:34:56.077Z,5.10
2022-12-29T09:37:30.732Z,5.70
2022-12-29T09:40:02.397Z,6.10
2022-12-29T09:42:40.787Z,6.90
2022-12-29T09:45:18.147Z,5.60
2022-12-29T09:47:50.231Z,5.20
2022-12-29T09:50:30.090Z,5.90
2022-12-29T09:53:07.757Z,6.40
2022-12-29T09:55:43.547Z,5.20
2022-12-29T09:58:21.120Z,4.30
2022-12-29T10:00:59.279Z,5.20
2022-12-29T10:03:39.268Z,4.70
2022-12-29T10:06:18.093Z,5.10
2022-12-29T10:08:59.811Z,4.90
2022-12-29T10:11:44.597Z,4.70
2022-12-29T10:14:30.128Z,5.20
2022-12-29T10:17:10.523Z,4.70
2022-12-29T10:20:02.044Z,4.20
2022-12-29T10:22:46.017Z,4.10
2022-12-29T10:25:21.976Z,4.80
2022-12-29T10:27:56.333Z,5.00
2022-12-29T10:30:28.294Z,4.80
2022-12-29T10:33:05.224Z,5.10
2022-12-29T10:35:41.758Z,5.80
2022-12-29T10:38:21.753Z,5.60
2022-12-29T10:40:59.510Z,5.20
2022-12-29T10:43:32.858Z,4.80
2022-12-29T10:46:09.694Z,5.30
2022-12-29T10:48:41.500Z,5.10
2022-12-29T10:51:13.667Z,5.50
2022-12-29T10:53:51.164Z,5.80
2022-12-29T10:56:32.497Z,5.60
2022-12-29T10:59:09.139Z,5.20
2022-12-29T11:01:50.874Z,5.20
2022-12-29T11:04:35.868Z,5.70
2022-12-29T11:07:13.275Z,5.50
2022-12-29T11:09:48.901Z,4.70
2022-12-29T11:12:29.111Z,5.70
2022-12-29T11:15:17.086Z,5.50
2022-12-29T11:17:51.476Z,5.50
2022-12-29T11:20:38.816Z,5.90
2022-12-29T11:23:27.632Z,6.20
2022-12-29T11:26:19.356Z,6.50
2022-12-29T11:29:06.919Z,5.70
2022-12-29T11:31:45.054Z,6.00
2022-12-29T11:34:22.710Z,5.40
2022-12-29T11:36:56.795Z,5.20
2022-12-29T11:39:36.044Z,6.00
2022-12-29T11:42:10.897Z,5.00
2022-12-29T11:44:48.105Z,5.50
2022-12-29T11:47:29.066Z,5.80
2022-12-29T11:50:03.687Z,5.80
2022-12-29T11:52:40.779Z,5.70
2022-12-29T11:55:23.312Z,5.50
2022-12-29T11:57:57.569Z,5.70
2022-12-29T12:00:31.617Z,5.60
2022-12-29T12:03:07.221Z,5.50
2022-12-29T12:05:46.237Z,5.50
2022-12-29T12:08:25.792Z,5.60
2022-12-29T12:11:01.578Z,5.90
2022-12-29T12:13:37.859Z,6.80
2022-12-29T12:16:15.004Z,5.50
2022-12-29T12:18:52.062Z,5.70
2022-12-29T12:21:32.262Z,5.60
2022-12-29T12:24:33.929Z,6.10
2022-12-29T12:27:15.458Z,6.10
2022-12-29T12:29:54.794Z,5.90
2022-12-29T12:32:39.233Z,6.80
2022-12-29T12:35:19.731Z,6.30
2022-12-29T12:38:07.553Z,6.30
2022-12-29T12:41:08.132Z,6.90
2022-12-29T12:44:01.310Z,6.80
2022-12-29T12:47:14.469Z,8.20
2022-12-29T12:50:20.495Z,7.10
2022-12-29T12:53:17.307Z,6.60
2022-12-29T12:56:14.386Z,6.40
2022-12-29T12:58:55.393Z,6.10
2022-12-29T13:01:41.167Z,5.90
2022-12-29T13:04:38.067Z,7.00
2022-12-29T13:07:22.763Z,5.40
2022-12-29T13:10:05.166Z,5.10
2022-12-29T13:12:50.109Z,5.80
2022-12-29T13:15:35.060Z,5.70
2022-12-29T13:18:17.071Z,5.30
2022-12-29T13:20:55.286Z,5.70
2022-12-29T13:23:32.999Z,5.40
2022-12-29T13:26:12.508Z,5.50
2022-12-29T13:28:52.449Z,5.90
2022-12-29T13:31:33.116Z,5.60
2022-12-29T13:34:14.201Z,5.70
2022-12-29T13:36:50.949Z,6.50
2022-12-29T13:39:26.962Z,5.80
2022-12-29T13:41:59.595Z,5.40
2022-12-29T13:44:36.562Z,5.90
2022-12-29T13:47:18.232Z,5.90
2022-12-29T13:49:51.330Z,6.00
2022-12-29T13:52:35.016Z,5.50
2022-12-29T13:55:22.447Z,5.50
2022-12-29T13:58:01.024Z,5.40
2022-12-29T14:00:39.058Z,6.10
2022-12-29T14:03:36.663Z,5.60
2022-12-29T14:06:22.469Z,6.20
2022-12-29T14:08:57.174Z,6.20
2022-12-29T14:16:45.867Z,5.60
2022-12-29T14:19:23.098Z,7.00
2022-12-29T14:21:59.221Z,6.20
2022-12-29T14:24:46.975Z,5.90
2022-12-29T14:28:04.194Z,5.90
2022-12-29T14:30:57.562Z,6.60
2022-12-29T14:33:31.366Z,6.40
2022-12-29T14:36:24.600Z,7.20
2022-12-29T14:38:56.963Z,6.00
2022-12-29T14:41:37.065Z,6.70
2022-12-29T14:44:23.035Z,6.40
2022-12-29T14:47:01.678Z,6.70
2022-12-29T14:49:42.475Z,7.30
2022-12-29T14:52:25.587Z,8.80
2022-12-29T14:55:01.657Z,8.10
2022-12-29T14:57:43.410Z,8.00
2022-12-29T15:00:27.927Z,7.30
2022-12-29T15:03:08.850Z,7.80
2022-12-29T15:05:46.600Z,8.00
2022-12-29T15:08:23.026Z,7.80
2022-12-29T15:10:59.400Z,6.90
2022-12-29T15:13:39.327Z,7.40
2022-12-29T15:16:26.302Z,6.90
2022-12-29T15:18:58.630Z,7.50
2022-12-29T15:21:34.808Z,8.20
2022-12-29T15:24:07.657Z,8.30
2022-12-29T15:26:45.510Z,8.60
2022-12-29T15:29:35.285Z,7.50
2022-12-29T15:32:22.816Z,8.10
2022-12-29T15:34:56.782Z,7.30
2022-12-29T15:37:30.313Z,7.20
2022-12-29T15:40:01.938Z,6.90
2022-12-29T15:42:49.829Z,7.90
2022-12-29T15:45:22.478Z,7.80
2022-12-29T15:47:57.960Z,6.90
2022-12-29T15:50:32.871Z,7.00
2022-12-29T15:53:05.915Z,7.00
2022-12-29T15:55:41.016Z,7.20
2022-12-29T15:58:24.016Z,6.50
2022-12-29T16:00:58.248Z,6.40
2022-12-29T16:03:33.731Z,6.80
2022-12-29T16:06:29.296Z,7.00
2022-12-29T16:09:06.009Z,7.40
2022-12-29T16:11:40.339Z,7.60
2022-12-29T16:14:17.766Z,7.10
2022-12-29T16:16:52.224Z,7.10
2022-12-29T16:19:32.096Z,6.70
2022-12-29T16:22:05.654Z,6.80
2022-12-29T16:24:40.059Z,7.80
2022-12-29T16:27:19.659Z,8.90
2022-12-29T16:29:54.631Z,8.50
2022-12-29T16:32:30.759Z,7.90
2022-12-29T16:35:16.449Z,7.60
2022-12-29T16:37:48.611Z,7.70
2022-12-29T16:40:32.944Z,7.40
2022-12-29T16:43:06.971Z,7.90
2022-12-29T16:46:08.547Z,8.10
2022-12-29T16:48:51.739Z,8.20
2022-12-29T16:51:32.739Z,7.20
2022-12-29T16:54:05.284Z,7.60
2022-12-29T16:56:40.070Z,6.70
2022-12-29T17:01:43.812Z,6.10
2022-12-29T17:04:16.681Z,8.00
2022-12-29T17:06:48.675Z,7.70
2022-12-29T17:09:25.489Z,7.70
2022-12-29T17:12:05.423Z,8.00
2022-12-29T17:14:47.954Z,8.40
2022-12-29T17:17:23.039Z,8.80
2022-12-29T17:20:00.139Z,8.20
2022-12-29T17:22:32.619Z,6.80
2022-12-29T17:25:05.273Z,7.40
2022-12-29T17:27:43.173Z,7.10
2022-12-29T17:30:18.716Z,7.50
2022-12-29T17:32:53.841Z,7.70
2022-12-29T17:35:26.937Z,7.80
2022-12-29T17:37:58.828Z,7.90
2022-12-29T17:40:32.676Z,7.30
2022-12-29T17:43:04.437Z,8.30
2022-12-29T17:45:36.498Z,9.00
2022-12-29T17:48:15.973Z,8.40
2022-12-29T17:50:49.360Z,9.00
2022-12-29T17:53:24.392Z,8.70
2022-12-29T17:55:56.067Z,9.00
2022-12-29T17:58:29.707Z,9.00
2022-12-29T18:01:04.331Z,9.50
2022-12-29T18:03:38.788Z,8.70
2022-12-29T18:06:13.355Z,8.70
2022-12-29T18:08:45.884Z,9.50
2022-12-29T18:11:26.588Z,10.30
2022-12-29T18:13:58.457Z,10.20
2022-12-29T18:16:30.696Z,10.00
2022-12-29T18:19:02.557Z,9.40
2022-12-29T18:21:34.719Z,9.60
2022-12-29T18:24:06.961Z,9.40
2022-12-29T18:26:38.711Z,10.00
2022-12-29T18:29:10.753Z,10.70
2022-12-29T18:31:42.597Z,9.70
2022-12-29T18:34:17.334Z,9.60
2022-12-29T18:36:49.086Z,9.90
2022-12-29T18:39:24.165Z,9.50
2022-12-29T18:41:58.773Z,10.70
2022-12-29T18:44:30.683Z,10.60
2022-12-29T18:47:03.684Z,11.20
2022-12-29T18:49:35.439Z,9.70
2022-12-29T18:52:07.798Z,9.40
2022-12-29T18:54:39.615Z,9.30
2022-12-29T18:57:11.432Z,9.10
2022-12-29T18:59:43.101Z,9.50
2022-12-29T19:02:19.371Z,9.20
2022-12-29T19:04:53.151Z,8.80
2022-12-29T19:09:56.595Z,9.50
2022-12-29T19:12:28.794Z,10.00
2022-12-29T19:15:02.617Z,10.10
2022-12-29T19:17:34.771Z,10.30
2022-12-29T19:20:07.884Z,9.80
2022-12-29T19:22:39.849Z,9.90
2022-12-29T19:25:11.902Z,9.10
2022-12-29T19:27:43.475Z,9.60
2022-12-29T19:30:17.350Z,10.20
2022-12-29T19:32:53.057Z,9.80
2022-12-29T19:35:26.793Z,10.00
2022-12-29T19:37:59.747Z,10.00
2022-12-29T19:40:31.300Z,10.20
2022-12-29T19:43:03.696Z,10.30
2022-12-29T19:45:39.070Z,10.00
2022-12-29T19:48:15.246Z,10.10
2022-12-29T19:50:47.805Z,10.40
2022-12-29T19:53:20.143Z,9.70
2022-12-29T19:55:52.473Z,10.30
2022-12-29T19:58:24.946Z,10.80
2022-12-29T20:00:56.646Z,11.00
2022-12-29T20:03:28.602Z,11.20
2022-12-29T20:06:00.656Z,10.10
2022-12-29T20:08:33.163Z,10.20
2022-12-29T20:11:08.010Z,11.10
2022-12-29T20:13:41.062Z,11.30
2022-12-29T20:16:15.816Z,10.30
2022-12-29T20:21:19.672Z,9.50
2022-12-29T20:23:52.662Z,9.60
2022-12-29T20:26:27.280Z,8.10
2022-12-29T20:29:00.527Z,10.10
2022-12-29T20:31:37.419Z,8.00
2022-12-29T20:34:10.749Z,9.50
2022-12-29T20:36:48.520Z,8.10
2022-12-29T20:39:22.936Z,8.70
2022-12-29T20:41:54.953Z,9.40
2022-12-29T20:44:27.048Z,9.00
2022-12-29T20:46:59.280Z,9.40
2022-12-29T20:49:32.038Z,8.60
2022-12-29T20:52:06.990Z,9.00
2022-12-29T20:54:39.928Z,9.10
2022-12-29T20:57:11.847Z,9.10
2022-12-29T20:59:45.077Z,8.80
2022-12-29T21:02:22.854Z,8.50
2022-12-29T21:05:22.834Z,8.00
2022-12-29T21:07:46.329Z,9.10
2022-12-29T21:10:18.605Z,8.50
2022-12-29T21:12:50.511Z,9.20
2022-12-29T21:15:22.935Z,8.20
2022-12-29T21:17:54.797Z,8.90
2022-12-29T21:20:32.465Z,8.40
2022-12-29T21:23:08.570Z,8.40
2022-12-29T21:25:45.343Z,8.30
2022-12-29T21:28:16.997Z,9.10
2022-12-29T21:30:50.305Z,8.90
2022-12-29T21:33:24.125Z,8.90
2022-12-29T21:35:55.910Z,8.40
2022-12-29T21:38:36.143Z,8.90
2022-12-29T21:41:13.303Z,9.20
2022-12-29T21:44:06.517Z,8.10
2022-12-29T21:46:40.340Z,9.20
2022-12-29T21:49:15.740Z,8.40
2022-12-29T21:51:54.322Z,8.30
2022-12-29T21:54:45.921Z,8.60
2022-12-29T21:57:39.512Z,8.30
2022-12-29T22:00:31.362Z,7.90
2022-12-29T22:03:23.830Z,7.50
2022-12-29T22:06:13.354Z,8.80
2022-12-29T22:09:02.314Z,8.30
2022-12-29T22:11:52.158Z,8.40
2022-12-29T22:14:24.077Z,8.30
2022-12-29T22:16:55.626Z,8.40
2022-12-29T22:19:27.290Z,9.10
2022-12-29T22:21:58.863Z,9.00
2022-12-29T22:24:30.614Z,8.70
2022-12-29T22:27:02.096Z,8.70
2022-12-29T22:29:33.692Z,8.70
2022-12-29T22:32:05.468Z,8.40
2022-12-29T22:34:37.165Z,8.60
2022-12-29T22:37:08.992Z,8.00
2022-12-29T22:39:40.490Z,8.40
2022-12-29T22:42:12.119Z,8.00
2022-12-29T22:44:44.244Z,8.70
2022-12-29T22:47:15.741Z,8.20
2022-12-29T22:49:47.428Z,8.80
2022-12-29T22:52:18.987Z,7.80
2022-12-29T22:54:50.600Z,8.30
2022-12-29T22:57:22.106Z,8.00
2022-12-29T22:59:53.660Z,8.10
2022-12-29T23:02:25.339Z,8.60
2022-12-29T23:05:03.566Z,8.70
2022-12-29T23:07:36.442Z,8.10
2022-12-29T23:10:09.244Z,8.20
2022-12-29T23:12:40.773Z,7.80
2022-12-29T23:15:13.868Z,8.40
2022-12-29T23:17:45.367Z,7.70
2022-12-29T23:20:16.930Z,7.80
2022-12-29T23:22:48.417Z,7.50
2022-12-29T23:25:20.224Z,8.10
2022-12-29T23:27:51.704Z,8.10
2022-12-29T23:30:23.240Z,8.20
2022-12-29T23:32:54.716Z,8.50
2022-12-29T23:35:26.203Z,8.60
2022-12-29T23:37:57.606Z,8.20
2022-12-29T23:40:29.101Z,8.00
2022-12-29T23:43:00.517Z,7.80
2022-12-29T23:45:32.590Z,8.80
2022-12-29T23:48:04.056Z,8.00
2022-12-29T23:50:35.950Z,7.90
2022-12-29T23:53:07.498Z,8.10
2022-12-29T23:55:40.571Z,8.40
2022-12-29T23:58:12.289Z,8.60
